Time;durP1;ratioP1;P1;durP2;ratioP2;P2;SDS_P1;SDS_P2;PMS_P1;PMS_P2;Temp;Humidity;BMP_temperature;BMP_pressure;BME280_temperature;BME280_humidity;BME280_pressure;Samples;Min_cycle;Max_cycle;Signal;HPM_P1;HPM_P2
2022/04/26 03:37:55;;;;;;;12.20;8.07;;;;;;;;;;5029248;28;20028;-68
2022/04/26 03:40:21;;;;;;;15.38;9.32;;;;;;;;;;5030887;28;20370;-68
2022/04/26 03:42:49;;;;;;;14.13;9.10;;;;;;;;;;5030955;28;20099;-68
2022/04/26 03:45:16;;;;;;;13.43;9.27;;;;;;;;;;5030990;28;20029;-68
2022/04/26 03:47:42;;;;;;;17.92;9.13;;;;;;;;;;5030457;28;20024;-68
2022/04/26 03:50:08;;;;;;;13.15;8.27;;;;;;;;;;5030102;28;20400;-68
2022/04/26 03:52:34;;;;;;;13.60;8.13;;;;;;;;;;5029596;28;20029;-69
2022/04/26 03:55:02;;;;;;;11.70;7.40;;;;;;;;;;5030938;28;20029;-68
2022/04/26 03:57:28;;;;;;;12.23;7.35;;;;;;;;;;5029904;28;20076;-68
2022/04/26 03:59:54;;;;;;;12.32;7.55;;;;;;;;;;5030231;28;20387;-68
2022/04/26 04:02:20;;;;;;;12.50;8.20;;;;;;;;;;5030205;28;20040;-68
2022/04/26 04:04:46;;;;;;;13.48;7.97;;;;;;;;;;5030197;28;20034;-68
2022/04/26 04:07:12;;;;;;;11.77;8.05;;;;;;;;;;5029452;28;20112;-68
2022/04/26 04:09:38;;;;;;;15.23;9.07;;;;;;;;;;5028760;28;20538;-68
2022/04/26 04:12:04;;;;;;;13.98;9.38;;;;;;;;;;5030174;28;20100;-68
2022/04/26 04:14:30;;;;;;;15.05;8.73;;;;;;;;;;5030672;28;21915;-68
2022/04/26 04:16:57;;;;;;;14.10;9.02;;;;;;;;;;5029012;28;20485;-68
2022/04/26 04:19:25;;;;;;;14.98;9.77;;;;;;;;;;5029438;28;20034;-68
2022/04/26 04:21:52;;;;;;;13.43;8.57;;;;;;;;;;5028788;28;20129;-68
2022/04/26 04:24:18;;;;;;;16.25;9.73;;;;;;;;;;5027754;28;20494;-68
2022/04/26 04:26:45;;;;;;;13.00;8.98;;;;;;;;;;5030156;28;20028;-68
2022/04/26 04:29:11;;;;;;;12.60;8.18;;;;;;;;;;5029913;28;20029;-68
2022/04/26 04:31:37;;;;;;;14.02;8.07;;;;;;;;;;5027676;28;20025;-68
2022/04/26 04:34:03;;;;;;;12.82;8.98;;;;;;;;;;5029831;28;20364;-68
2022/04/26 04:36:29;;;;;;;16.88;9.43;;;;;;;;;;5029433;28;20025;-68
2022/04/26 04:38:56;;;;;;;14.85;8.73;;;;;;;;;;5027611;28;20104;-68
2022/04/26 04:41:22;;;;;;;14.02;8.52;;;;;;;;;;5029776;28;20113;-68
2022/04/26 04:43:48;;;;;;;13.38;9.20;;;;;;;;;;5029187;28;20033;-67
2022/04/26 04:46:14;;;;;;;16.63;9.02;;;;;;;;;;5028779;28;20216;-68
2022/04/26 04:48:40;;;;;;;14.15;8.38;;;;;;;;;;5029516;28;20017;-67
2022/04/26 04:51:07;;;;;;;15.60;9.88;;;;;;;;;;5029835;28;20471;-68
2022/04/26 04:53:33;;;;;;;13.80;8.82;;;;;;;;;;5028472;28;20086;-71
2022/04/26 04:56:00;;;;;;;11.20;6.93;;;;;;;;;;5028021;28;20107;-71
2022/04/26 04:58:26;;;;;;;15.82;9.15;;;;;;;;;;5029110;28;20029;-71
2022/04/26 05:00:52;;;;;;;12.68;8.02;;;;;;;;;;5029428;28;20486;-71
2022/04/26 05:03:18;;;;;;;13.45;7.93;;;;;;;;;;5029382;28;20037;-71
2022/04/26 05:05:44;;;;;;;13.65;8.20;;;;;;;;;;5029717;28;20021;-71
2022/04/26 05:08:10;;;;;;;11.07;8.02;;;;;;;;;;5030475;28;20039;-71
2022/04/26 05:10:37;;;;;;;12.60;8.35;;;;;;;;;;5029480;28;20049;-71
2022/04/26 05:13:03;;;;;;;12.93;8.45;;;;;;;;;;5027946;28;20029;-71
2022/04/26 05:15:29;;;;;;;14.45;7.35;;;;;;;;;;5028925;28;20108;-71
2022/04/26 05:17:55;;;;;;;12.95;8.23;;;;;;;;;;5027272;28;20529;-71
2022/04/26 05:20:21;;;;;;;14.43;8.38;;;;;;;;;;5028284;28;20486;-71
2022/04/26 05:25:37;;;;;;;13.75;8.00;;;;;;;;;;5029159;28;20064;-71
2022/04/26 05:28:03;;;;;;;12.05;7.38;;;;;;;;;;5026909;28;20381;-71
2022/04/26 05:30:30;;;;;;;14.70;8.30;;;;;;;;;;5028806;28;20044;-71
2022/04/26 05:32:56;;;;;;;12.18;7.93;;;;;;;;;;5029334;28;20028;-71
2022/04/26 05:35:22;;;;;;;13.68;8.57;;;;;;;;;;5027427;28;20018;-71
2022/04/26 05:37:49;;;;;;;12.32;8.40;;;;;;;;;;5027756;28;20609;-71
2022/04/26 05:40:15;;;;;;;14.65;8.25;;;;;;;;;;5026420;28;20037;-73
2022/04/26 05:42:41;;;;;;;14.57;8.82;;;;;;;;;;5032013;28;20072;-71
2022/04/26 05:45:07;;;;;;;15.27;9.18;;;;;;;;;;5033254;28;20030;-71
2022/04/26 05:47:33;;;;;;;14.55;8.60;;;;;;;;;;5031520;28;20021;-71
2022/04/26 05:49:59;;;;;;;17.35;9.27;;;;;;;;;;5033197;28;20056;-71
2022/04/26 05:52:26;;;;;;;16.30;9.55;;;;;;;;;;5034211;28;20029;-71
2022/04/26 05:54:58;;;;;;;14.10;8.73;;;;;;;;;;5035550;28;20069;-72
2022/04/26 05:57:25;;;;;;;12.63;8.18;;;;;;;;;;5032523;28;20445;-71
2022/04/26 05:59:51;;;;;;;15.30;8.20;;;;;;;;;;5033182;28;20025;-72
2022/04/26 06:02:17;;;;;;;16.65;9.02;;;;;;;;;;5032672;28;20119;-71
2022/04/26 06:04:44;;;;;;;13.43;8.43;;;;;;;;;;5032813;28;20034;-71
2022/04/26 06:07:10;;;;;;;12.60;8.25;;;;;;;;;;5032835;28;20140;-71
2022/04/26 06:09:37;;;;;;;14.60;7.80;;;;;;;;;;5029721;28;20112;-71
2022/04/26 06:12:04;;;;;;;12.82;8.13;;;;;;;;;;5032516;28;20026;-71
2022/04/26 06:14:30;;;;;;;12.40;8.32;;;;;;;;;;5032776;28;20147;-71
2022/04/26 06:16:56;;;;;;;11.90;6.72;;;;;;;;;;5032653;28;20052;-71
2022/04/26 06:19:22;;;;;;;12.57;7.70;;;;;;;;;;5032247;28;20471;-72
2022/04/26 06:21:48;;;;;;;14.82;7.32;;;;;;;;;;5030011;28;20033;-71
2022/04/26 06:24:14;;;;;;;10.82;6.35;;;;;;;;;;5029688;28;20118;-71
2022/04/26 06:26:40;;;;;;;11.80;7.15;;;;;;;;;;5031664;28;20025;-71
2022/04/26 06:29:06;;;;;;;13.80;7.95;;;;;;;;;;5032249;28;20028;-71
2022/04/26 06:31:32;;;;;;;13.75;8.93;;;;;;;;;;5031927;28;20427;-71
2022/04/26 06:33:58;;;;;;;14.20;8.18;;;;;;;;;;5032444;28;20033;-71
2022/04/26 06:36:25;;;;;;;11.60;7.57;;;;;;;;;;5032246;28;20386;-71
2022/04/26 06:38:51;;;;;;;11.52;7.57;;;;;;;;;;5025258;28;20079;-71
2022/04/26 06:41:17;;;;;;;10.27;6.22;;;;;;;;;;5047130;28;20040;-72
2022/04/26 06:43:43;;;;;;;9.75;5.97;;;;;;;;;;5032266;28;20044;-71
2022/04/26 06:46:09;;;;;;;14.25;6.40;;;;;;;;;;5030797;28;20256;-71
2022/04/26 06:48:35;;;;;;;14.30;6.30;;;;;;;;;;5031454;28;20025;-70
2022/04/26 06:51:01;;;;;;;9.18;5.60;;;;;;;;;;5031920;28;20063;-71
2022/04/26 06:53:27;;;;;;;9.65;6.13;;;;;;;;;;5031382;28;20306;-70
2022/04/26 06:55:53;;;;;;;13.73;6.82;;;;;;;;;;5029912;28;20026;-70
2022/04/26 06:58:19;;;;;;;11.63;7.35;;;;;;;;;;5031793;28;20025;-70
2022/04/26 07:00:46;;;;;;;13.43;6.93;;;;;;;;;;5031718;28;20029;-70
2022/04/26 07:03:13;;;;;;;10.15;5.22;;;;;;;;;;5031549;28;20029;-70
2022/04/26 07:05:41;;;;;;;16.17;6.47;;;;;;;;;;5031252;28;20040;-70
2022/04/26 07:08:07;;;;;;;9.35;5.72;;;;;;;;;;5030493;28;20132;-70
2022/04/26 07:10:33;;;;;;;10.75;6.53;;;;;;;;;;5030126;28;20060;-70
2022/04/26 07:12:59;;;;;;;13.65;7.10;;;;;;;;;;5025761;28;20467;-70
2022/04/26 07:15:25;;;;;;;8.65;5.32;;;;;;;;;;5031219;28;20381;-70
2022/04/26 07:17:51;;;;;;;10.50;6.38;;;;;;;;;;5027820;28;20126;-71
2022/04/26 07:20:17;;;;;;;11.15;5.80;;;;;;;;;;5030882;28;20033;-71
2022/04/26 07:22:43;;;;;;;10.23;5.47;;;;;;;;;;5030051;28;20040;-70
2022/04/26 07:25:10;;;;;;;10.40;5.53;;;;;;;;;;5030135;28;20344;-71
2022/04/26 07:27:36;;;;;;;9.38;5.72;;;;;;;;;;5030779;28;20021;-70
2022/04/26 07:30:02;;;;;;;8.23;5.38;;;;;;;;;;5029472;28;20021;-71
2022/04/26 07:35:13;;;;;;;11.90;5.40;;;;;;;;;;5031125;28;20193;-70
2022/04/26 07:37:39;;;;;;;7.47;4.90;;;;;;;;;;5030825;28;20084;-70
2022/04/26 07:40:06;;;;;;;8.80;4.85;;;;;;;;;;5029865;28;20025;-70
2022/04/26 07:42:32;;;;;;;9.77;4.90;;;;;;;;;;5031204;28;20032;-71
2022/04/26 07:44:58;;;;;;;7.95;5.15;;;;;;;;;;5030452;28;20017;-70
2022/04/26 07:47:26;;;;;;;8.35;4.88;;;;;;;;;;5030421;28;20567;-70
2022/04/26 07:49:52;;;;;;;11.77;4.78;;;;;;;;;;5029590;28;20022;-71
2022/04/26 07:52:19;;;;;;;10.13;5.05;;;;;;;;;;5030088;28;20036;-71
2022/04/26 07:54:46;;;;;;;6.75;4.75;;;;;;;;;;5029660;28;20068;-70
2022/04/26 07:57:12;;;;;;;7.00;4.60;;;;;;;;;;5030641;28;20041;-70
2022/04/26 07:59:38;;;;;;;8.27;4.70;;;;;;;;;;5030513;28;20029;-70
2022/04/26 08:02:07;;;;;;;5.88;3.65;;;;;;;;;;5030856;28;20394;-70
2022/04/26 08:04:33;;;;;;;5.90;4.13;;;;;;;;;;5028467;28;20321;-70
2022/04/26 08:06:59;;;;;;;5.25;3.83;;;;;;;;;;5029860;28;20282;-70
2022/04/26 08:09:25;;;;;;;6.55;4.47;;;;;;;;;;5029636;28;20111;-70
2022/04/26 08:11:51;;;;;;;6.47;4.15;;;;;;;;;;5028937;28;20475;-70
2022/04/26 08:14:20;;;;;;;6.07;3.95;;;;;;;;;;5029890;28;20473;-71
2022/04/26 08:16:46;;;;;;;5.95;4.25;;;;;;;;;;5029893;28;20071;-70
2022/04/26 08:19:12;;;;;;;7.43;4.32;;;;;;;;;;5029005;28;20025;-70
2022/04/26 08:21:39;;;;;;;6.38;3.90;;;;;;;;;;5029071;28;20091;-70
2022/04/26 08:29:36;;;;;;;6.45;4.10;;;;;;;;;;5029659;28;20159;-70
2022/04/26 08:32:02;;;;;;;6.07;4.30;;;;;;;;;;5028640;28;20044;-70
2022/04/26 08:34:28;;;;;;;6.95;4.25;;;;;;;;;;5030055;28;20497;-70
2022/04/26 08:36:54;;;;;;;5.80;3.97;;;;;;;;;;5028187;28;20067;-70
2022/04/26 08:39:21;;;;;;;4.63;3.15;;;;;;;;;;5027734;28;20085;-70
2022/04/26 08:41:47;;;;;;;7.85;4.13;;;;;;;;;;5025564;28;20029;-70
2022/04/26 08:44:13;;;;;;;7.63;4.07;;;;;;;;;;5029828;28;20021;-70
2022/04/26 08:52:09;;;;;;;6.10;3.63;;;;;;;;;;5029898;28;20052;-70
2022/04/26 08:54:35;;;;;;;6.45;3.65;;;;;;;;;;5029756;28;20029;-70
2022/04/26 08:57:01;;;;;;;5.63;3.45;;;;;;;;;;5029180;28;20031;-70
2022/04/26 08:59:28;;;;;;;8.75;3.63;;;;;;;;;;5028291;28;20030;-70
2022/04/26 09:02:12;;;;;;;7.07;3.15;;;;;;;;;;5029270;28;20091;-71
2022/04/26 09:04:38;;;;;;;6.75;4.32;;;;;;;;;;5029705;28;20420;-70
2022/04/26 09:07:04;;;;;;;7.93;4.10;;;;;;;;;;5028408;28;20498;-71
2022/04/26 09:09:30;;;;;;;9.00;4.68;;;;;;;;;;5028153;28;20040;-70
2022/04/26 09:12:01;;;;;;;9.95;3.45;;;;;;;;;;5026674;28;20411;-70
2022/04/26 09:14:30;;;;;;;7.22;3.70;;;;;;;;;;5027062;28;20095;-71
2022/04/26 09:17:06;;;;;;;6.47;3.90;;;;;;;;;;5029242;28;20075;-70
2022/04/26 09:19:52;;;;;;;6.65;3.83;;;;;;;;;;5029156;28;20017;-70
2022/04/26 09:22:18;;;;;;;6.05;3.28;;;;;;;;;;5027646;28;20132;-70
2022/04/26 09:24:55;;;;;;;8.90;3.30;;;;;;;;;;5027782;28;20029;-71
2022/04/26 09:27:21;;;;;;;9.85;4.65;;;;;;;;;;5026798;28;20048;-71
2022/04/26 09:29:47;;;;;;;5.65;3.50;;;;;;;;;;5024840;28;20025;-70
2022/04/26 09:32:13;;;;;;;6.22;4.18;;;;;;;;;;5025924;28;20017;-70
2022/04/26 09:34:40;;;;;;;5.30;3.78;;;;;;;;;;5027709;28;20368;-70
2022/04/26 09:37:06;;;;;;;5.00;3.90;;;;;;;;;;5027645;28;20026;-71
2022/04/26 09:39:32;;;;;;;9.95;3.97;;;;;;;;;;5028645;28;20021;-70
2022/04/26 09:41:58;;;;;;;4.50;2.85;;;;;;;;;;5051168;23;20332;-72
2022/04/26 09:44:31;;;;;;;6.60;3.50;;;;;;;;;;5041765;28;20033;-72
2022/04/26 09:46:58;;;;;;;5.40;3.20;;;;;;;;;;5025534;28;20466;-72
2022/04/26 09:49:25;;;;;;;4.35;2.72;;;;;;;;;;5031383;28;20029;-72
2022/04/26 09:51:55;;;;;;;6.80;3.38;;;;;;;;;;5032774;28;20029;-73
2022/04/26 09:54:21;;;;;;;;;;;;;;;;;;5018962;28;20386;-72
2022/04/26 09:56:48;;;;;;;4.32;3.30;;;;;;;;;;5040234;28;19999;-73
2022/04/26 09:59:15;;;;;;;7.97;3.13;;;;;;;;;;5028681;28;20036;-72
2022/04/26 10:01:47;;;;;;;5.97;3.83;;;;;;;;;;5031675;28;20067;-71
2022/04/26 10:04:20;;;;;;;6.00;3.38;;;;;;;;;;5032084;28;20091;-71
2022/04/26 10:06:48;;;;;;;6.43;3.15;;;;;;;;;;5021116;28;20033;-72
2022/04/26 10:09:14;;;;;;;7.22;2.80;;;;;;;;;;5035969;28;20028;-71
2022/04/26 10:11:40;;;;;;;4.65;2.70;;;;;;;;;;5020007;28;20087;-72
2022/04/26 10:14:07;;;;;;;4.70;3.25;;;;;;;;;;5039296;28;20033;-72
2022/04/26 10:16:33;;;;;;;4.35;3.00;;;;;;;;;;5010787;28;20030;-72
2022/04/26 10:19:09;;;;;;;5.63;3.13;;;;;;;;;;5019927;28;20100;-71
2022/04/26 10:21:38;;;;;;;5.13;3.17;;;;;;;;;;5030850;28;20408;-71
2022/04/26 10:24:18;;;;;;;3.33;2.55;;;;;;;;;;5024915;28;20181;-72
2022/04/26 10:26:44;;;;;;;6.67;3.17;;;;;;;;;;5009101;28;20022;-73
2022/04/26 10:29:10;;;;;;;5.13;2.88;;;;;;;;;;5020614;28;20071;-72
2022/04/26 10:31:38;;;;;;;4.00;2.85;;;;;;;;;;5040980;28;20029;-72
2022/04/26 10:34:17;;;;;;;3.22;2.33;;;;;;;;;;5039521;28;20148;-71
2022/04/26 10:36:44;;;;;;;5.15;3.13;;;;;;;;;;5035192;28;20479;-72
2022/04/26 10:39:12;;;;;;;5.47;3.47;;;;;;;;;;5033285;28;20034;-72
2022/04/26 10:41:42;;;;;;;4.68;3.00;;;;;;;;;;5008853;28;20122;-72
2022/04/26 10:44:17;;;;;;;4.22;2.22;;;;;;;;;;5011218;28;20042;-72
2022/04/26 10:46:44;;;;;;;6.50;3.05;;;;;;;;;;5021465;28;20029;-72
2022/04/26 10:51:50;;;;;;;4.70;3.30;;;;;;;;;;5029210;28;20108;-71
2022/04/26 10:54:36;;;;;;;5.05;2.78;;;;;;;;;;5026155;28;20078;-71
2022/04/26 10:57:02;;;;;;;7.22;3.90;;;;;;;;;;5042015;28;20513;-72
2022/04/26 10:59:28;;;;;;;11.88;3.15;;;;;;;;;;5020373;28;20022;-72
2022/04/26 11:01:55;;;;;;;3.25;2.42;;;;;;;;;;5025947;28;20042;-72
2022/04/26 11:04:21;;;;;;;6.70;3.97;;;;;;;;;;5028155;28;20033;-72
2022/04/26 11:06:48;;;;;;;11.05;4.38;;;;;;;;;;5028212;28;20025;-71
2022/04/26 11:09:15;;;;;;;6.95;2.67;;;;;;;;;;5027197;28;20033;-71
2022/04/26 11:11:51;;;;;;;3.13;2.05;;;;;;;;;;5019997;28;20029;-71
2022/04/26 11:14:19;;;;;;;5.47;3.78;;;;;;;;;;5032129;28;20098;-72
2022/04/26 11:16:55;;;;;;;7.38;2.95;;;;;;;;;;5030828;28;20171;-71
2022/04/26 11:19:28;;;;;;;6.32;3.97;;;;;;;;;;5007179;28;20634;-72
2022/04/26 11:21:54;;;;;;;8.90;4.32;;;;;;;;;;5033081;28;20032;-72
2022/04/26 11:29:53;;;;;;;5.28;3.15;;;;;;;;;;5035648;28;20111;-72
2022/04/26 11:32:31;;;;;;;7.30;3.58;;;;;;;;;;5038350;28;20471;-72
2022/04/26 11:34:57;;;;;;;1.50;1.40;;;;;;;;;;5031051;28;20021;-71
2022/04/26 11:37:23;;;;;;;3.80;2.72;;;;;;;;;;5029651;28;20047;-71
2022/04/26 11:39:49;;;;;;;4.22;1.92;;;;;;;;;;5021892;28;20378;-71
2022/04/26 11:42:16;;;;;;;5.28;2.55;;;;;;;;;;5029244;28;20037;-71
2022/04/26 11:45:00;;;;;;;2.75;1.83;;;;;;;;;;5024850;28;20436;-72
2022/04/26 11:47:43;;;;;;;1.25;1.15;;;;;;;;;;5041691;28;20029;-72
2022/04/26 11:53:18;;;;;;;6.70;3.35;;;;;;;;;;4953910;29;20039;-73
2022/04/26 11:55:51;;;;;;;7.75;4.20;;;;;;;;;;4961620;28;20074;-72
2022/04/26 11:58:19;;;;;;;8.75;4.22;;;;;;;;;;4975402;28;20070;-72
2022/04/26 12:01:04;;;;;;;6.22;4.20;;;;;;;;;;4967231;28;20191;-71
2022/04/26 12:03:30;;;;;;;7.32;4.15;;;;;;;;;;4942171;29;20051;-72
2022/04/26 12:06:04;;;;;;;8.93;3.88;;;;;;;;;;4950166;29;20065;-72
2022/04/26 12:08:35;;;;;;;9.25;4.47;;;;;;;;;;4947864;29;20325;-71
2022/04/26 12:11:20;;;;;;;6.82;4.38;;;;;;;;;;4949891;29;20092;-72
2022/04/26 12:13:57;;;;;;;11.77;5.00;;;;;;;;;;4941325;28;20077;-72
2022/04/26 12:16:23;;;;;;;4.90;3.17;;;;;;;;;;4949483;28;20051;-72
2022/04/26 12:18:49;;;;;;;5.47;3.30;;;;;;;;;;4951659;28;20074;-72
2022/04/26 12:21:15;;;;;;;6.13;2.92;;;;;;;;;;4949479;29;20540;-72
2022/04/26 12:23:41;;;;;;;5.32;3.25;;;;;;;;;;4948957;29;20477;-71
2022/04/26 12:26:09;;;;;;;7.85;4.22;;;;;;;;;;4933182;29;20019;-72
2022/04/26 12:28:45;;;;;;;13.30;5.60;;;;;;;;;;4955170;28;20026;-72
2022/04/26 12:31:21;;;;;;;10.77;4.75;;;;;;;;;;5011819;28;20077;-71
2022/04/26 12:33:51;;;;;;;6.55;3.40;;;;;;;;;;5024858;28;20022;-72
2022/04/26 12:36:17;;;;;;;10.07;4.07;;;;;;;;;;4994637;28;20113;-72
2022/04/26 12:38:47;;;;;;;10.07;4.63;;;;;;;;;;5002050;28;20041;-71
2022/04/26 12:41:13;;;;;;;8.50;3.70;;;;;;;;;;4997672;28;20027;-72
2022/04/26 12:43:39;;;;;;;3.65;2.33;;;;;;;;;;5000236;28;20406;-73
2022/04/26 12:46:09;;;;;;;6.00;3.45;;;;;;;;;;5008479;28;20060;-72
2022/04/26 12:51:29;;;;;;;7.45;2.90;;;;;;;;;;4969752;28;20034;-72
2022/04/26 12:54:06;;;;;;;4.47;2.63;;;;;;;;;;4995706;28;20030;-72
2022/04/26 12:56:32;;;;;;;5.43;3.00;;;;;;;;;;5007715;28;20478;-72
2022/04/26 12:58:58;;;;;;;4.00;2.72;;;;;;;;;;4999011;28;20041;-73
2022/04/26 13:01:24;;;;;;;7.18;2.40;;;;;;;;;;4992373;28;20621;-71
2022/04/26 13:03:50;;;;;;;6.88;2.78;;;;;;;;;;5008478;28;20118;-72
2022/04/26 13:06:18;;;;;;;4.97;3.50;;;;;;;;;;5017860;28;20022;-72
2022/04/26 13:08:45;;;;;;;6.18;2.85;;;;;;;;;;5004388;28;20542;-72
2022/04/26 13:11:11;;;;;;;6.07;3.03;;;;;;;;;;5002966;28;20486;-72
2022/04/26 13:13:41;;;;;;;4.32;2.40;;;;;;;;;;5006979;28;20491;-73
2022/04/26 13:16:07;;;;;;;2.30;2.08;;;;;;;;;;5011179;28;20180;-73
2022/04/26 13:18:34;;;;;;;3.97;2.30;;;;;;;;;;5008753;28;20026;-72
2022/04/26 13:21:01;;;;;;;4.80;2.25;;;;;;;;;;4997970;28;20031;-72
2022/04/26 13:23:32;;;;;;;2.53;1.85;;;;;;;;;;4999995;28;20022;-72
2022/04/26 13:25:59;;;;;;;2.13;1.70;;;;;;;;;;5000790;28;20109;-72
2022/04/26 13:28:25;;;;;;;0.95;0.90;;;;;;;;;;4999714;28;20129;-72
2022/04/26 13:30:51;;;;;;;3.67;2.40;;;;;;;;;;5006622;28;20547;-77
2022/04/26 13:33:17;;;;;;;5.85;2.35;;;;;;;;;;4993483;28;20152;-72
2022/04/26 13:35:43;;;;;;;3.88;1.80;;;;;;;;;;4993441;28;20022;-73
2022/04/26 13:38:10;;;;;;;4.13;1.55;;;;;;;;;;5008658;28;20038;-71
2022/04/26 13:40:37;;;;;;;4.25;2.20;;;;;;;;;;4998416;28;20026;-71
2022/04/26 13:43:03;;;;;;;2.90;2.22;;;;;;;;;;5003383;28;20491;-72
2022/04/26 13:45:29;;;;;;;1.85;1.40;;;;;;;;;;5004021;28;20037;-72
2022/04/26 13:47:55;;;;;;;2.25;1.65;;;;;;;;;;4999463;28;20029;-72
2022/04/26 13:50:21;;;;;;;6.63;2.63;;;;;;;;;;5016245;28;20356;-71
2022/04/26 13:52:47;;;;;;;4.80;2.42;;;;;;;;;;5000505;28;20113;-73
2022/04/26 13:55:17;;;;;;;3.58;1.85;;;;;;;;;;5017377;28;20038;-72
2022/04/26 13:57:44;;;;;;;2.75;1.95;;;;;;;;;;5005868;28;20037;-72
2022/04/26 14:00:11;;;;;;;3.78;2.13;;;;;;;;;;5004260;28;20030;-71
2022/04/26 14:02:37;;;;;;;5.53;1.98;;;;;;;;;;4993140;28;20387;-72
2022/04/26 14:05:04;;;;;;;5.28;2.65;;;;;;;;;;5001705;28;20014;-72
2022/04/26 14:07:30;;;;;;;3.38;2.20;;;;;;;;;;5012458;28;20083;-72
2022/04/26 14:09:56;;;;;;;4.65;2.80;;;;;;;;;;5027082;28;20053;-71
2022/04/26 14:12:22;;;;;;;8.32;4.10;;;;;;;;;;5011746;28;20042;-71
2022/04/26 14:23:02;;;;;;;7.20;3.63;;;;;;;;;;5010106;28;20095;-72
2022/04/26 14:25:28;;;;;;;4.53;3.28;;;;;;;;;;5011353;28;20033;-72
2022/04/26 14:27:54;;;;;;;5.50;3.20;;;;;;;;;;5006800;28;20080;-71
2022/04/26 14:30:20;;;;;;;6.65;3.50;;;;;;;;;;5015172;28;20544;-73
2022/04/26 14:32:46;;;;;;;6.97;3.80;;;;;;;;;;5002120;28;20034;-73
2022/04/26 14:35:12;;;;;;;7.65;4.18;;;;;;;;;;5008133;28;20069;-72
2022/04/26 14:37:38;;;;;;;11.43;3.75;;;;;;;;;;5012297;28;20101;-72
2022/04/26 14:40:06;;;;;;;5.63;3.70;;;;;;;;;;5018735;28;20049;-71
2022/04/26 14:42:32;;;;;;;7.13;3.05;;;;;;;;;;5015743;28;20227;-72
2022/04/26 14:44:58;;;;;;;6.18;3.05;;;;;;;;;;5011336;28;20034;-72
2022/04/26 14:47:27;;;;;;;4.40;3.00;;;;;;;;;;5003972;28;20026;-71
2022/04/26 14:50:00;;;;;;;7.93;3.30;;;;;;;;;;5001182;28;20026;-72
2022/04/26 14:52:26;;;;;;;7.32;3.72;;;;;;;;;;5010517;28;20026;-72
2022/04/26 14:54:52;;;;;;;6.95;3.45;;;;;;;;;;5013589;28;20110;-72
2022/04/26 14:57:18;;;;;;;4.28;3.22;;;;;;;;;;4992752;28;20034;-72
2022/04/26 14:59:47;;;;;;;9.10;3.30;;;;;;;;;;5000790;28;20028;-72
2022/04/26 15:02:17;;;;;;;9.88;3.40;;;;;;;;;;4997002;28;20558;-72
2022/04/26 15:04:44;;;;;;;9.50;4.10;;;;;;;;;;5020132;28;20025;-72
2022/04/26 15:07:10;;;;;;;8.25;3.75;;;;;;;;;;5011222;28;20029;-72
2022/04/26 15:09:52;;;;;;;6.57;4.30;;;;;;;;;;5015180;28;20030;-72
2022/04/26 15:17:48;;;;;;;11.13;5.97;;;;;;;;;;5010019;28;20323;-72
2022/04/26 15:20:15;;;;;;;14.23;5.78;;;;;;;;;;5010916;28;20030;-72
2022/04/26 15:22:41;;;;;;;10.75;5.68;;;;;;;;;;5012461;28;20030;-73
2022/04/26 15:25:09;;;;;;;16.55;4.88;;;;;;;;;;5010077;28;20022;-72
2022/04/26 15:27:36;;;;;;;7.38;4.47;;;;;;;;;;5011421;28;20079;-72
2022/04/26 15:30:03;;;;;;;9.30;4.03;;;;;;;;;;5007206;28;20053;-72
2022/04/26 15:32:29;;;;;;;6.43;4.35;;;;;;;;;;5000271;28;20026;-73
2022/04/26 15:34:55;;;;;;;7.03;4.43;;;;;;;;;;5011475;28;20056;-72
2022/04/26 15:37:24;;;;;;;6.43;3.80;;;;;;;;;;5003121;28;20030;-73
2022/04/26 15:39:50;;;;;;;3.75;2.75;;;;;;;;;;5003158;28;20030;-72
2022/04/26 15:42:18;;;;;;;3.83;2.17;;;;;;;;;;5019604;28;20555;-72
2022/04/26 15:44:44;;;;;;;9.43;4.72;;;;;;;;;;5016186;28;20030;-72
2022/04/26 15:47:10;;;;;;;8.32;5.00;;;;;;;;;;5008916;28;20034;-72
2022/04/26 15:49:36;;;;;;;5.32;2.75;;;;;;;;;;4994421;28;20026;-65
2022/04/26 15:52:02;;;;;;;7.03;3.78;;;;;;;;;;5009142;28;20036;-64
2022/04/26 15:54:28;;;;;;;5.72;4.18;;;;;;;;;;5006853;28;20104;-64
2022/04/26 15:56:54;;;;;;;6.93;3.97;;;;;;;;;;5018313;28;20128;-64
2022/04/26 15:59:20;;;;;;;9.85;3.72;;;;;;;;;;5011207;28;20488;-65
2022/04/26 16:01:46;;;;;;;4.78;3.08;;;;;;;;;;4991643;28;20152;-65
2022/04/26 16:04:13;;;;;;;9.05;3.10;;;;;;;;;;4992458;28;20030;-65
2022/04/26 16:06:39;;;;;;;7.05;3.67;;;;;;;;;;5011205;28;20026;-64
2022/04/26 16:22:50;;;;;;;4.65;2.85;;;;;;;;;;4995342;28;20096;-64
2022/04/26 16:25:16;;;;;;;5.55;3.10;;;;;;;;;;5008883;28;20034;-64
2022/04/26 16:27:42;;;;;;;4.20;2.63;;;;;;;;;;5004542;28;20037;-64
2022/04/26 16:30:09;;;;;;;4.10;3.08;;;;;;;;;;5011500;28;20029;-64
2022/04/26 16:32:36;;;;;;;2.67;2.20;;;;;;;;;;5008266;28;20501;-64
2022/04/26 16:35:02;;;;;;;3.83;1.90;;;;;;;;;;4998503;28;20093;-64
2022/04/26 16:37:28;;;;;;;1.83;1.60;;;;;;;;;;5020863;28;20052;-66
2022/04/26 16:39:54;;;;;;;2.33;1.67;;;;;;;;;;5013723;28;20490;-65
2022/04/26 16:42:20;;;;;;;4.28;2.42;;;;;;;;;;5020239;28;20073;-64
2022/04/26 16:44:48;;;;;;;1.65;1.48;;;;;;;;;;5006197;28;20057;-65
2022/04/26 16:47:15;;;;;;;2.53;1.58;;;;;;;;;;5012687;28;20030;-65
2022/04/26 16:49:42;;;;;;;2.60;2.00;;;;;;;;;;5010241;28;20126;-64
2022/04/26 16:52:08;;;;;;;5.95;2.30;;;;;;;;;;5014334;28;20108;-64
2022/04/26 16:54:34;;;;;;;4.85;1.95;;;;;;;;;;4999071;28;20101;-65
2022/04/26 16:57:01;;;;;;;5.35;2.30;;;;;;;;;;4992567;28;20020;-64
2022/04/26 16:59:29;;;;;;;4.13;2.28;;;;;;;;;;5007571;28;20473;-65
2022/04/26 17:01:57;;;;;;;3.40;1.95;;;;;;;;;;5008557;28;20035;-64
2022/04/26 17:04:24;;;;;;;3.08;2.40;;;;;;;;;;5011890;28;20030;-65
2022/04/26 17:06:50;;;;;;;3.60;2.47;;;;;;;;;;5010851;28;20044;-64
2022/04/26 17:09:20;;;;;;;2.70;2.40;;;;;;;;;;5013370;28;20093;-64
2022/04/26 17:11:47;;;;;;;6.07;2.65;;;;;;;;;;5012065;28;20034;-64
2022/04/26 17:14:14;;;;;;;3.08;2.22;;;;;;;;;;5014903;28;20399;-64
2022/04/26 17:16:40;;;;;;;5.35;2.90;;;;;;;;;;5009472;28;20044;-65
2022/04/26 17:19:06;;;;;;;5.40;3.17;;;;;;;;;;5009819;28;20022;-64
2022/04/26 17:21:32;;;;;;;4.95;3.42;;;;;;;;;;5018129;28;20488;-65
2022/04/26 17:24:01;;;;;;;8.23;2.90;;;;;;;;;;5010137;28;20037;-65
2022/04/26 17:26:27;;;;;;;7.88;2.60;;;;;;;;;;5009767;28;20030;-65
2022/04/26 17:31:43;;;;;;;6.32;3.00;;;;;;;;;;5009559;28;20037;-65
2022/04/26 17:34:09;;;;;;;5.30;3.40;;;;;;;;;;5004089;28;20038;-64
2022/04/26 17:36:40;;;;;;;4.10;2.90;;;;;;;;;;5007639;28;20026;-66
2022/04/26 17:45:46;;;;;;;8.32;4.63;;;;;;;;;;4953711;29;20198;-64
2022/04/26 17:48:13;;;;;;;5.80;3.95;;;;;;;;;;4956755;28;20062;-64
2022/04/26 17:50:43;;;;;;;7.32;3.42;;;;;;;;;;4936996;28;20040;-64
2022/04/26 17:58:38;;;;;;;6.03;3.30;;;;;;;;;;4950701;28;20511;-65
2022/04/26 18:01:05;;;;;;;12.23;5.45;;;;;;;;;;4949465;29;20059;-65
2022/04/26 18:03:31;;;;;;;10.18;5.25;;;;;;;;;;4957250;28;20042;-64
2022/04/26 18:05:59;;;;;;;7.85;3.88;;;;;;;;;;4957896;28;20140;-64
2022/04/26 18:08:26;;;;;;;4.97;3.25;;;;;;;;;;4956731;28;20035;-65
2022/04/26 18:10:52;;;;;;;4.82;3.70;;;;;;;;;;4933786;29;20035;-65
2022/04/26 18:13:18;;;;;;;6.50;3.65;;;;;;;;;;4938821;29;20030;-65
2022/04/26 18:15:46;;;;;;;5.53;3.60;;;;;;;;;;4946752;28;20041;-64
2022/04/26 18:24:27;;;;;;;7.00;3.72;;;;;;;;;;5001593;28;20494;-65
2022/04/26 18:30:01;;;;;;;4.18;3.10;;;;;;;;;;4992699;28;20029;-65
2022/04/26 18:32:28;;;;;;;3.35;2.28;;;;;;;;;;5008338;28;20041;-66
2022/04/26 18:34:53;;;;;;;4.03;2.67;;;;;;;;;;5004298;28;20080;-65
2022/04/26 18:37:21;;;;;;;3.80;2.55;;;;;;;;;;5013562;28;20093;-65
2022/04/26 18:39:47;;;;;;;3.97;2.42;;;;;;;;;;5004871;28;20026;-64
2022/04/26 18:42:13;;;;;;;4.38;2.20;;;;;;;;;;5010398;28;20442;-65
2022/04/26 18:44:40;;;;;;;2.30;1.90;;;;;;;;;;5013843;28;20088;-64
2022/04/26 18:47:06;;;;;;;2.20;1.60;;;;;;;;;;5008093;28;20517;-64
2022/04/26 18:49:33;;;;;;;3.50;1.67;;;;;;;;;;5021050;28;20049;-64
2022/04/26 18:51:59;;;;;;;4.43;1.60;;;;;;;;;;5028213;28;20053;-64
2022/04/26 18:54:25;;;;;;;1.60;1.50;;;;;;;;;;5004155;28;20448;-64
2022/04/26 18:56:52;;;;;;;4.00;2.10;;;;;;;;;;5004576;28;20025;-64
2022/04/26 18:59:21;;;;;;;4.88;2.60;;;;;;;;;;5011619;28;20021;-65
2022/04/26 19:04:51;;;;;;;2.35;1.48;;;;;;;;;;5020458;23;20692;-66
2022/04/26 19:07:17;;;;;;;20.25;5.88;;;;;;;;;;4990475;28;20178;-66
2022/04/26 19:12:27;;;;;;;6.43;2.67;;;;;;;;;;4991308;28;20324;-66
2022/04/26 19:14:53;;;;;;;4.70;2.65;;;;;;;;;;5003247;28;20451;-68
2022/04/26 19:17:20;;;;;;;7.70;4.35;;;;;;;;;;5003893;28;20026;-66
2022/04/26 19:19:46;;;;;;;8.23;5.50;;;;;;;;;;4992881;28;20030;-66
2022/04/26 19:22:13;;;;;;;7.85;4.30;;;;;;;;;;5006995;28;20117;-66
2022/04/26 19:24:39;;;;;;;4.68;3.08;;;;;;;;;;5008859;28;20294;-66
2022/04/26 19:27:05;;;;;;;7.30;3.13;;;;;;;;;;4999302;28;20354;-66
2022/04/26 19:29:32;;;;;;;5.28;2.60;;;;;;;;;;4998813;28;20117;-66
2022/04/26 19:31:58;;;;;;;5.30;3.50;;;;;;;;;;5004672;28;20040;-66
2022/04/26 19:34:24;;;;;;;4.18;2.40;;;;;;;;;;5002174;28;20034;-66
2022/04/26 19:36:50;;;;;;;3.80;2.58;;;;;;;;;;5002105;28;20137;-66
2022/04/26 19:39:17;;;;;;;4.75;2.20;;;;;;;;;;4991129;28;20094;-66
2022/04/26 19:41:44;;;;;;;2.70;2.10;;;;;;;;;;5021937;28;20103;-66
2022/04/26 19:44:10;;;;;;;2.42;1.95;;;;;;;;;;5002546;28;20500;-67